Time;durP1;ratioP1;P1;durP2;ratioP2;P2;SDS_P1;SDS_P2;PMS_P1;PMS_P2;Temp;Humidity;BMP_temperature;BMP_pressure;BME280_temperature;BME280_humidity;BME280_pressure;Samples;Min_cycle;Max_cycle;Signal;HPM_P1;HPM_P2
2021/07/04 00:02:25;;;;;;;18.93;17.03;;;;;;;15.57;77.37;98614.91;124867;1093;64257;-79
2021/07/04 00:04:51;;;;;;;20.57;16.53;;;;;;;15.55;77.03;98613.36;124764;1091;64284;-79
2021/07/04 00:07:18;;;;;;;16.83;15.03;;;;;;;15.48;77.23;98613.10;124782;1093;64349;-79
2021/07/04 00:09:45;;;;;;;16.97;15.27;;;;;;;15.41;77.08;98614.66;124837;1093;64284;-80
2021/07/04 00:12:11;;;;;;;16.97;15.17;;;;;;;15.37;77.38;98622.13;124786;1093;64264;-80
2021/07/04 00:14:38;;;;;;;16.20;14.50;;;;;;;15.32;77.49;98620.86;124785;1093;64271;-79
2021/07/04 00:17:04;;;;;;;18.53;16.53;;;;;;;15.23;77.53;98622.56;124780;1093;64360;-79
2021/07/04 00:19:31;;;;;;;19.37;17.37;;;;;;;15.22;77.65;98614.64;124775;1093;64341;-79
2021/07/04 00:21:57;;;;;;;18.57;16.63;;;;;;;15.21;77.99;98611.12;124802;1093;64264;-79
2021/07/04 00:24:24;;;;;;;21.37;18.00;;;;;;;15.18;78.00;98610.56;124793;1092;64290;-80
2021/07/04 00:26:50;;;;;;;21.13;16.43;;;;;;;15.15;77.96;98606.33;124816;1094;64264;-80
2021/07/04 00:29:17;;;;;;;20.87;17.13;;;;;;;15.11;78.08;98608.45;124826;1093;64421;-79
2021/07/04 00:31:44;;;;;;;19.00;17.00;;;;;;;15.04;78.13;98617.20;124840;1093;64299;-79
2021/07/04 00:34:10;;;;;;;17.60;15.70;;;;;;;14.99;78.50;98609.56;124779;1093;64384;-79
2021/07/04 00:36:37;;;;;;;18.93;16.13;;;;;;;14.91;78.70;98609.42;124839;1093;64268;-79
2021/07/04 00:39:04;;;;;;;18.75;16.80;;;;;;;14.91;78.91;98607.58;124800;1093;64271;-80
2021/07/04 00:41:31;;;;;;;18.80;15.50;;;;;;;14.94;78.94;98609.14;124814;1092;64497;-80
2021/07/04 00:43:57;;;;;;;18.80;16.70;;;;;;;14.95;79.15;98613.50;124796;1093;64447;-80
2021/07/04 00:46:24;;;;;;;21.23;17.60;;;;;;;14.95;79.22;98613.50;124789;1093;64293;-80
2021/07/04 00:48:50;;;;;;;23.63;18.13;;;;;;;14.96;79.11;98617.91;124775;1093;64207;-79
2021/07/04 00:51:17;;;;;;;20.73;18.53;;;;;;;14.98;79.36;98618.62;124818;1093;64287;-79
2021/07/04 00:53:44;;;;;;;20.20;17.53;;;;;;;14.93;79.40;98616.34;124763;1093;64418;-79
2021/07/04 00:56:12;;;;;;;20.70;18.07;;;;;;;14.93;79.30;98610.98;124818;1093;64171;-80
2021/07/04 00:58:38;;;;;;;20.17;17.90;;;;;;;14.91;79.60;98615.63;124754;1093;64274;-79
2021/07/04 01:01:05;;;;;;;20.30;18.13;;;;;;;14.85;79.40;98613.52;124796;1093;64268;-79
2021/07/04 01:03:32;;;;;;;19.40;17.13;;;;;;;14.82;79.41;98615.61;124796;1093;64271;-79
2021/07/04 01:05:58;;;;;;;19.17;16.93;;;;;;;14.82;80.03;98608.40;124818;1092;64279;-79
2021/07/04 01:08:25;;;;;;;21.15;18.15;;;;;;;14.77;80.11;98596.39;124783;1093;64408;-79
2021/07/04 01:10:52;;;;;;;22.47;17.33;;;;;;;14.76;80.38;98606.28;124784;1093;64280;-79
2021/07/04 01:13:19;;;;;;;21.65;17.15;;;;;;;14.74;80.33;98605.56;124805;1093;64287;-79
2021/07/04 01:15:45;;;;;;;20.97;17.33;;;;;;;14.74;80.82;98610.94;124812;1093;64276;-80
2021/07/04 01:18:12;;;;;;;17.47;15.60;;;;;;;14.76;80.70;98608.13;124764;1093;64322;-80
2021/07/04 01:20:40;;;;;;;19.13;17.13;;;;;;;14.73;80.84;98609.25;124800;1092;64457;-80
2021/07/04 01:23:09;;;;;;;20.85;18.75;;;;;;;14.72;80.95;98612.92;124817;1093;64267;-80
2021/07/04 01:25:46;;;;;;;23.00;19.20;;;;;;;14.74;80.90;98610.09;124798;1093;64185;-79
2021/07/04 01:28:13;;;;;;;21.40;18.77;;;;;;;14.76;81.63;98617.02;124763;1093;64274;-80
2021/07/04 01:30:42;;;;;;;21.90;19.67;;;;;;;14.78;81.67;98619.57;124769;1093;64271;-79
2021/07/04 01:33:09;;;;;;;20.73;18.60;;;;;;;14.77;81.46;98612.48;124804;1093;64264;-80
2021/07/04 01:35:35;;;;;;;22.50;19.53;;;;;;;14.78;81.78;98611.52;124782;1093;64225;-79
2021/07/04 01:38:02;;;;;;;21.30;18.83;;;;;;;14.78;81.79;98615.05;124811;1091;64190;-79
2021/07/04 01:40:31;;;;;;;19.60;16.77;;;;;;;14.76;81.36;98608.97;124786;1093;64312;-79
2021/07/04 01:42:58;;;;;;;20.65;17.50;;;;;;;14.73;81.83;98609.25;124793;1093;64379;-79
2021/07/04 01:45:25;;;;;;;20.50;16.90;;;;;;;14.70;81.58;98610.38;124805;1093;64309;-79
2021/07/04 01:47:54;;;;;;;19.75;17.65;;;;;;;14.68;81.75;98612.34;124788;1092;64268;-79
2021/07/04 01:50:31;;;;;;;23.30;19.73;;;;;;;14.62;82.04;98612.90;124827;1093;64185;-79
2021/07/04 01:52:57;;;;;;;22.30;19.77;;;;;;;14.62;82.11;98612.06;124767;1094;64268;-79
2021/07/04 01:55:24;;;;;;;21.83;19.47;;;;;;;14.63;82.34;98619.95;124773;1093;64284;-79
2021/07/04 01:57:52;;;;;;;21.33;18.87;;;;;;;14.65;82.34;98617.98;124832;1093;64721;-79
2021/07/04 02:00:30;;;;;;;24.30;18.30;;;;;;;14.67;82.33;98620.54;124774;1093;64406;-79
2021/07/04 02:03:00;;;;;;;19.13;17.07;;;;;;;14.64;82.40;98620.79;124895;1094;64220;-79
2021/07/04 02:05:27;;;;;;;19.95;17.23;;;;;;;14.58;82.22;98621.34;124892;1093;64212;-79
2021/07/04 02:07:54;;;;;;;20.10;17.03;;;;;;;14.49;82.39;98618.48;124820;1093;64401;-79
2021/07/04 02:10:24;;;;;;;19.10;16.97;;;;;;;14.47;82.64;98612.39;124859;1093;64335;-79
2021/07/04 02:12:51;;;;;;;20.97;18.30;;;;;;;14.53;82.95;98613.70;124860;1093;64216;-79
2021/07/04 02:15:24;;;;;;;20.27;17.43;;;;;;;14.59;83.17;98613.17;124852;1093;64193;-79
2021/07/04 02:17:51;;;;;;;19.17;16.30;;;;;;;14.61;82.84;98613.89;124847;1093;64740;-80
2021/07/04 02:20:33;;;;;;;18.90;16.90;;;;;;;14.60;82.86;98619.39;124871;1093;64306;-79
2021/07/04 02:23:21;;;;;;;17.33;15.63;;;;;;;14.57;82.61;98614.30;124887;1093;64288;-79
2021/07/04 02:25:49;;;;;;;19.67;16.83;;;;;;;14.51;82.55;98615.67;124847;1092;64278;-79
2021/07/04 02:28:18;;;;;;;23.10;18.70;;;;;;;14.48;82.74;98611.43;124790;1093;64341;-79
2021/07/04 02:30:46;;;;;;;23.18;18.85;;;;;;;14.53;82.96;98627.11;124886;1093;64235;-80
2021/07/04 02:33:15;;;;;;;20.47;18.27;;;;;;;14.57;82.87;98616.98;124866;1093;64319;-80
2021/07/04 02:35:48;;;;;;;19.85;17.40;;;;;;;14.51;82.49;98621.03;124871;1093;64302;-79
2021/07/04 02:38:16;;;;;;;18.97;15.70;;;;;;;14.46;82.39;98620.59;124880;1093;64242;-79
2021/07/04 02:40:44;;;;;;;19.07;17.10;;;;;;;14.41;82.64;98628.20;124893;1093;64281;-79
2021/07/04 02:43:14;;;;;;;17.63;15.83;;;;;;;14.32;82.33;98618.27;124960;1092;64380;-79
2021/07/04 02:45:41;;;;;;;;;;;;;;;14.22;82.60;98618.25;124865;1093;64300;-79
2021/07/04 02:48:09;;;;;;;18.50;16.60;;;;;;;14.17;82.87;98620.48;124804;1093;64268;-79
2021/07/04 02:50:38;;;;;;;18.17;15.73;;;;;;;14.14;82.69;98623.41;124837;1093;64335;-79
2021/07/04 02:53:05;;;;;;;18.50;16.60;;;;;;;14.14;82.68;98623.41;124790;1093;64293;-80
2021/07/04 02:55:32;;;;;;;20.23;17.93;;;;;;;14.11;82.76;98624.53;124795;1093;64287;-79
2021/07/04 02:57:58;;;;;;;21.37;19.17;;;;;;;14.10;83.05;98625.52;124767;1093;64306;-79
2021/07/04 03:00:27;;;;;;;20.33;17.93;;;;;;;14.10;83.12;98632.72;124845;1093;64255;-79
2021/07/04 03:02:55;;;;;;;22.15;18.50;;;;;;;14.07;83.02;98630.31;125002;1093;64291;-79
2021/07/04 03:05:22;;;;;;;19.90;17.73;;;;;;;14.07;82.93;98638.35;124889;1093;64785;-79
2021/07/04 03:07:49;;;;;;;20.47;18.27;;;;;;;14.09;83.05;98633.72;124946;1093;64313;-79
2021/07/04 03:10:18;;;;;;;20.57;17.67;;;;;;;14.11;83.11;98645.13;124926;1093;64290;-79
2021/07/04 03:12:46;;;;;;;21.57;18.77;;;;;;;14.12;83.05;98645.00;124857;1093;64290;-79
2021/07/04 03:15:14;;;;;;;19.50;17.40;;;;;;;14.16;83.04;98650.93;124773;1093;64277;-79
2021/07/04 03:17:41;;;;;;;19.57;17.47;;;;;;;14.19;83.18;98648.85;124824;1093;64271;-80
2021/07/04 03:20:10;;;;;;;17.53;15.53;;;;;;;14.25;83.04;98655.50;124791;1093;64293;-80
2021/07/04 03:22:37;;;;;;;17.93;16.13;;;;;;;14.27;82.70;98653.55;124823;1093;64312;-80
2021/07/04 03:25:07;;;;;;;16.63;14.90;;;;;;;14.35;82.20;98656.39;124832;1093;64245;-79
2021/07/04 03:27:34;;;;;;;15.83;14.23;;;;;;;14.42;82.23;98660.21;124816;1093;64217;-79
2021/07/04 03:30:01;;;;;;;17.40;15.70;;;;;;;14.68;82.11;98649.05;124830;1093;64281;-80
2021/07/04 03:32:27;;;;;;;16.73;14.83;;;;;;;15.32;81.21;98656.64;124794;1093;64296;-80
2021/07/04 03:34:54;;;;;;;16.57;14.83;;;;;;;15.80;80.08;98649.56;124750;1093;64383;-79
2021/07/04 03:37:21;;;;;;;14.87;13.27;;;;;;;15.75;80.02;98649.14;124862;1092;64444;-79
2021/07/04 03:39:47;;;;;;;16.67;14.90;;;;;;;16.21;79.64;98650.98;124790;1093;64284;-79
2021/07/04 03:42:14;;;;;;;14.67;13.20;;;;;;;16.23;78.95;98649.00;124820;1093;64315;-80
2021/07/04 03:44:41;;;;;;;18.07;16.20;;;;;;;16.01;79.39;98660.13;124790;1093;65883;-80
2021/07/04 03:47:08;;;;;;;17.37;15.57;;;;;;;15.89;79.72;98658.59;124779;1093;64268;-80
2021/07/04 03:49:34;;;;;;;16.50;14.75;;;;;;;15.82;79.70;98666.36;124816;1093;64354;-80
2021/07/04 03:52:01;;;;;;;17.83;14.97;;;;;;;15.79;80.11;98672.03;124861;1093;65873;-80
2021/07/04 03:54:27;;;;;;;17.80;15.90;;;;;;;15.78;79.92;98663.13;124920;1093;64268;-80
2021/07/04 03:56:57;;;;;;;18.70;16.70;;;;;;;15.76;80.13;98667.79;124888;1093;64264;-80
2021/07/04 03:59:23;;;;;;;18.07;16.10;;;;;;;16.18;80.03;98662.03;124945;1093;64312;-79
2021/07/04 04:01:50;;;;;;;20.10;16.75;;;;;;;17.49;78.31;98654.66;124866;1093;64194;-79
2021/07/04 04:04:16;;;;;;;17.20;15.43;;;;;;;18.54;76.56;98656.40;124823;1093;64273;-79
2021/07/04 04:06:44;;;;;;;16.67;15.07;;;;;;;19.46;74.98;98656.52;124842;1093;64269;-79
2021/07/04 04:09:11;;;;;;;17.27;15.77;;;;;;;20.27;73.62;98652.06;124807;1093;64287;-79
2021/07/04 04:11:37;;;;;;;17.00;14.90;;;;;;;21.08;72.37;98648.20;124766;1093;64277;-80
2021/07/04 04:14:04;;;;;;;16.73;15.13;;;;;;;21.74;71.26;98645.06;124792;1093;64214;-80
2021/07/04 04:16:30;;;;;;;15.85;14.40;;;;;;;22.27;69.65;98643.22;124795;1093;64280;-79
2021/07/04 04:18:57;;;;;;;16.50;15.00;;;;;;;22.76;68.42;98642.65;124767;1093;64350;-80
2021/07/04 04:21:24;;;;;;;16.57;15.07;;;;;;;23.16;67.61;98643.16;124784;1093;64299;-80
2021/07/04 04:23:51;;;;;;;14.87;13.47;;;;;;;23.52;66.58;98634.13;124792;1093;64231;-80
2021/07/04 04:26:18;;;;;;;15.00;13.70;;;;;;;23.80;65.78;98629.60;124840;1093;64211;-79
2021/07/04 04:28:45;;;;;;;15.53;14.23;;;;;;;24.07;64.79;98625.20;124853;1093;64243;-79
2021/07/04 04:31:11;;;;;;;14.35;12.95;;;;;;;24.38;63.83;98625.80;124805;1093;64329;-79
2021/07/04 04:33:38;;;;;;;17.03;14.67;;;;;;;24.49;63.45;98623.40;124811;1092;64242;-79
2021/07/04 04:36:06;;;;;;;15.00;13.80;;;;;;;24.63;60.68;98626.19;124822;1093;64248;-79
2021/07/04 04:38:33;;;;;;;15.00;13.70;;;;;;;24.66;61.42;98626.61;124865;1093;64309;-79
2021/07/04 04:40:59;;;;;;;14.67;13.33;;;;;;;24.89;60.91;98629.03;124795;1093;64284;-79
2021/07/04 04:43:26;;;;;;;15.47;14.00;;;;;;;25.08;60.74;98624.69;124810;1093;64276;-79
2021/07/04 04:45:53;;;;;;;15.93;14.40;;;;;;;25.41;59.80;98621.25;124876;1093;64293;-79
2021/07/04 04:48:20;;;;;;;16.63;15.13;;;;;;;25.58;59.03;98632.59;124788;1092;64281;-80
2021/07/04 04:50:46;;;;;;;16.17;14.67;;;;;;;25.75;58.68;98630.28;124754;1093;64278;-80
2021/07/04 04:53:13;;;;;;;16.13;14.70;;;;;;;25.93;57.76;98635.15;124781;1093;64281;-79
2021/07/04 04:55:40;;;;;;;16.47;14.87;;;;;;;25.98;57.81;98636.20;124818;1093;64245;-79
2021/07/04 04:58:07;;;;;;;15.20;13.97;;;;;;;26.09;56.97;98625.69;124766;1093;64271;-79
2021/07/04 05:00:33;;;;;;;16.43;15.03;;;;;;;26.14;56.71;98628.63;124798;1093;64287;-79
2021/07/04 05:03:05;;;;;;;16.77;15.23;;;;;;;26.36;57.07;98629.23;124795;1093;64274;-80
2021/07/04 05:05:33;;;;;;;17.47;15.90;;;;;;;26.68;56.16;98636.53;124792;1093;64383;-80
2021/07/04 05:08:01;;;;;;;18.65;16.95;;;;;;;26.80;54.85;98627.64;124842;1093;64341;-80
2021/07/04 05:10:28;;;;;;;18.60;16.90;;;;;;;26.77;54.34;98622.62;124927;1093;64268;-80
2021/07/04 05:12:54;;;;;;;17.30;15.70;;;;;;;26.66;53.60;98624.13;124829;1092;64276;-80
2021/07/04 05:15:22;;;;;;;16.83;15.30;;;;;;;26.63;53.61;98624.56;124887;1092;64264;-80
2021/07/04 05:17:48;;;;;;;16.47;14.87;;;;;;;26.89;54.11;98623.63;124879;1092;64273;-80
2021/07/04 05:20:15;;;;;;;18.13;16.47;;;;;;;27.05;52.76;98634.06;124916;1093;64271;-79
2021/07/04 05:22:41;;;;;;;15.90;14.57;;;;;;;27.19;53.30;98629.39;124926;1093;64309;-79
2021/07/04 05:25:09;;;;;;;17.57;16.07;;;;;;;27.49;53.08;98617.83;124878;1093;64309;-79
2021/07/04 05:27:35;;;;;;;17.10;15.55;;;;;;;27.61;52.12;98624.28;124876;1093;64293;-79
2021/07/04 05:30:03;;;;;;;18.23;16.53;;;;;;;27.63;52.15;98624.91;124873;1094;64291;-80
2021/07/04 05:32:30;;;;;;;19.77;17.87;;;;;;;27.67;52.09;98622.55;124918;1093;64280;-80
2021/07/04 05:34:56;;;;;;;19.03;17.33;;;;;;;27.67;51.34;98617.07;124882;1093;64290;-79
2021/07/04 05:37:23;;;;;;;20.03;18.23;;;;;;;27.83;51.12;98611.07;124769;1093;64362;-80
2021/07/04 05:39:49;;;;;;;18.50;16.67;;;;;;;27.93;50.88;98611.41;124777;1093;64373;-80
2021/07/04 05:42:16;;;;;;;19.73;16.77;;;;;;;28.16;51.22;98615.42;124801;1093;64276;-80
2021/07/04 05:44:43;;;;;;;18.23;16.60;;;;;;;28.09;50.32;98611.91;124762;1093;64277;-80
2021/07/04 05:47:10;;;;;;;18.27;16.47;;;;;;;28.12;50.16;98612.31;124691;1093;64213;-80
2021/07/04 05:49:36;;;;;;;17.47;15.73;;;;;;;28.17;50.28;98628.91;124792;1093;64367;-80
2021/07/04 05:52:06;;;;;;;17.67;16.13;;;;;;;28.20;49.42;98628.45;124808;1093;64542;-80
2021/07/04 05:54:32;;;;;;;16.23;14.73;;;;;;;28.07;49.23;98628.58;124684;1093;64271;-80
2021/07/04 05:56:59;;;;;;;15.63;14.13;;;;;;;27.89;49.57;98625.80;124775;1093;64383;-79
2021/07/04 05:59:25;;;;;;;14.57;13.17;;;;;;;27.56;50.20;98630.41;124787;1093;64277;-79
2021/07/04 06:01:52;;;;;;;15.60;14.13;;;;;;;27.51;50.36;98634.88;124768;1093;64309;-79
2021/07/04 06:04:18;;;;;;;22.47;20.33;;;;;;;27.64;49.89;98644.90;124789;1093;64298;-79
2021/07/04 06:06:46;;;;;;;22.60;20.70;;;;;;;27.86;49.50;98634.44;124716;1093;64287;-79
2021/07/04 06:09:12;;;;;;;22.57;20.40;;;;;;;27.87;49.34;98636.13;124792;1093;64319;-79
2021/07/04 06:11:39;;;;;;;23.17;21.10;;;;;;;27.93;49.07;98637.97;124789;1093;64303;-80
2021/07/04 06:14:05;;;;;;;22.03;20.17;;;;;;;27.92;48.66;98630.82;124793;1093;64221;-80
2021/07/04 06:16:32;;;;;;;20.67;18.60;;;;;;;27.95;49.14;98625.72;124790;1093;64290;-80
2021/07/04 06:18:58;;;;;;;20.70;18.80;;;;;;;27.94;48.71;98625.97;124877;1093;64309;-80
2021/07/04 06:21:25;;;;;;;18.60;16.90;;;;;;;27.91;48.73;98621.77;124893;1092;64267;-80
2021/07/04 06:23:51;;;;;;;18.80;17.20;;;;;;;28.00;48.63;98620.41;124923;1093;64287;-79
2021/07/04 06:26:18;;;;;;;17.03;15.57;;;;;;;28.06;48.91;98632.37;124761;1093;64303;-80
2021/07/04 06:28:45;;;;;;;16.23;14.93;;;;;;;28.10;48.49;98635.52;124798;1093;64194;-80
2021/07/04 06:31:11;;;;;;;16.93;15.13;;;;;;;28.32;48.45;98623.05;124787;1093;64312;-80
2021/07/04 06:33:38;;;;;;;15.33;13.93;;;;;;;28.35;48.37;98630.82;124877;1093;64162;-80
2021/07/04 06:36:05;;;;;;;14.80;13.40;;;;;;;28.39;48.31;98632.06;124829;1093;64245;-79
2021/07/04 06:38:31;;;;;;;12.80;11.47;;;;;;;28.22;48.35;98629.05;124878;1093;64201;-80
2021/07/04 06:40:58;;;;;;;10.70;9.67;;;;;;;28.24;47.53;98628.83;124885;1093;64351;-80
2021/07/04 06:43:24;;;;;;;11.47;10.23;;;;;;;28.27;47.58;98633.86;124906;1093;64271;-80
2021/07/04 06:45:52;;;;;;;12.50;11.30;;;;;;;28.17;47.80;98641.75;124914;1093;64194;-80
2021/07/04 06:48:19;;;;;;;11.73;10.63;;;;;;;28.08;47.28;98646.69;124863;1093;64245;-79
2021/07/04 06:50:46;;;;;;;12.43;11.17;;;;;;;27.96;47.43;98638.38;124851;1093;64274;-80
2021/07/04 06:53:16;;;;;;;12.87;11.57;;;;;;;28.05;47.75;98644.41;124827;1093;64370;-81
2021/07/04 06:55:42;;;;;;;11.97;10.77;;;;;;;28.05;48.01;98633.44;124880;1093;64283;-81
2021/07/04 06:58:09;;;;;;;11.50;10.17;;;;;;;28.02;47.70;98639.38;124913;1093;64309;-81
2021/07/04 07:00:35;;;;;;;9.80;8.83;;;;;;;28.03;48.12;98638.30;124899;1092;64264;-80
2021/07/04 07:03:02;;;;;;;10.30;9.40;;;;;;;28.14;47.02;98637.56;124930;1093;64217;-81
2021/07/04 07:05:29;;;;;;;9.33;8.53;;;;;;;28.16;46.66;98634.61;124882;1093;64377;-80
2021/07/04 07:07:55;;;;;;;8.63;7.83;;;;;;;28.19;46.52;98643.20;124917;1093;64306;-81
2021/07/04 07:10:22;;;;;;;9.45;8.65;;;;;;;27.99;45.50;98637.92;124912;1093;64290;-79
2021/07/04 07:12:49;;;;;;;8.90;8.10;;;;;;;27.98;46.00;98630.75;124871;1093;64290;-79
2021/07/04 07:15:16;;;;;;;11.37;10.03;;;;;;;28.00;45.92;98639.59;124844;1093;64280;-81
2021/07/04 07:17:43;;;;;;;10.90;9.90;;;;;;;28.05;45.71;98635.35;124909;1093;64351;-81
2021/07/04 07:20:09;;;;;;;8.27;7.57;;;;;;;28.14;45.33;98631.25;124924;1093;64261;-80
2021/07/04 07:22:38;;;;;;;8.70;7.90;;;;;;;27.99;45.36;98635.19;124992;1093;64293;-79
2021/07/04 07:25:07;;;;;;;8.90;8.20;;;;;;;27.91;45.10;98635.47;125019;1093;64271;-80
2021/07/04 07:27:33;;;;;;;8.60;7.90;;;;;;;27.70;44.88;98635.78;124866;1093;64268;-79
2021/07/04 07:30:00;;;;;;;8.07;7.27;;;;;;;27.67;45.44;98636.23;124823;1093;64306;-79
2021/07/04 07:32:27;;;;;;;8.20;7.50;;;;;;;27.48;45.25;98632.59;124846;1093;64287;-79
2021/07/04 07:34:54;;;;;;;9.10;8.30;;;;;;;27.18;45.81;98638.66;124931;1092;64727;-80
2021/07/04 07:37:22;;;;;;;7.83;7.10;;;;;;;26.90;47.04;98633.50;125080;1093;64277;-80
2021/07/04 07:39:50;;;;;;;8.70;7.80;;;;;;;26.67;46.89;98643.06;124826;1093;64284;-80
2021/07/04 07:42:17;;;;;;;8.07;7.23;;;;;;;26.57;47.45;98641.80;124838;1093;64456;-79
2021/07/04 07:44:44;;;;;;;9.70;8.63;;;;;;;26.49;47.65;98637.41;124855;1093;64306;-79
2021/07/04 07:47:11;;;;;;;8.80;7.85;;;;;;;26.34;47.85;98631.34;124833;1093;64248;-80
2021/07/04 07:49:37;;;;;;;9.27;8.40;;;;;;;26.30;47.45;98644.56;124795;1094;64271;-78
2021/07/04 07:52:04;;;;;;;9.27;8.23;;;;;;;26.17;47.69;98636.39;124763;1093;64337;-79
2021/07/04 07:54:31;;;;;;;10.10;9.10;;;;;;;26.01;47.83;98632.20;124824;1093;64338;-79
2021/07/04 07:57:01;;;;;;;9.75;8.70;;;;;;;25.92;48.22;98638.95;124780;1093;64265;-80
2021/07/04 07:59:30;;;;;;;10.13;9.10;;;;;;;26.00;48.44;98636.83;124779;1093;64279;-80
2021/07/04 08:01:57;;;;;;;10.47;9.37;;;;;;;26.15;48.40;98624.86;124828;1093;64312;-80
2021/07/04 08:04:25;;;;;;;10.75;9.60;;;;;;;26.28;48.18;98622.11;124819;1093;64431;-80
2021/07/04 08:06:52;;;;;;;9.93;9.03;;;;;;;26.34;48.21;98615.78;124869;1093;64402;-80
2021/07/04 08:09:20;;;;;;;11.17;9.00;;;;;;;26.39;48.54;98615.98;124851;1093;64225;-80
2021/07/04 08:11:47;;;;;;;10.27;9.30;;;;;;;26.53;48.53;98622.27;124920;1093;64293;-80
2021/07/04 08:14:14;;;;;;;9.40;8.55;;;;;;;26.66;47.56;98616.77;124875;1093;64220;-80
2021/07/04 08:16:40;;;;;;;9.67;8.83;;;;;;;26.54;47.27;98615.77;125019;1093;64332;-80
2021/07/04 08:19:07;;;;;;;10.00;9.03;;;;;;;25.99;46.67;98610.59;124830;1093;64382;-80
2021/07/04 08:21:34;;;;;;;10.97;8.57;;;;;;;25.81;47.64;98607.63;124860;1093;64264;-80
2021/07/04 08:24:02;;;;;;;9.07;8.27;;;;;;;25.94;48.09;98604.92;124938;1093;64405;-80
2021/07/04 08:26:29;;;;;;;8.87;8.07;;;;;;;26.18;48.21;98597.95;124883;1093;64287;-80
2021/07/04 08:28:55;;;;;;;9.60;8.63;;;;;;;26.24;46.39;98598.98;124895;1093;64452;-79
2021/07/04 08:31:25;;;;;;;10.10;9.10;;;;;;;26.12;46.73;98595.21;124867;1093;64396;-80
2021/07/04 08:33:54;;;;;;;9.90;8.90;;;;;;;26.21;47.40;98593.95;124827;1093;64287;-80
2021/07/04 08:36:25;;;;;;;8.27;7.40;;;;;;;26.39;45.63;98604.22;124876;1093;64192;-80
2021/07/04 08:38:52;;;;;;;8.60;7.80;;;;;;;26.39;46.32;98596.85;124871;1093;64338;-80
2021/07/04 08:41:19;;;;;;;8.53;7.70;;;;;;;26.34;46.99;98593.09;124857;1093;64495;-80
2021/07/04 08:43:45;;;;;;;9.57;8.67;;;;;;;26.23;47.27;98600.88;124836;1093;64386;-81
2021/07/04 08:46:12;;;;;;;9.33;8.43;;;;;;;26.34;47.67;98590.36;124885;1093;64271;-80
2021/07/04 08:48:41;;;;;;;8.03;7.27;;;;;;;26.80;47.65;98592.94;124901;1093;64288;-80
2021/07/04 08:51:09;;;;;;;9.00;8.13;;;;;;;27.01;47.33;98591.78;124961;1091;64261;-81
2021/07/04 08:53:38;;;;;;;8.83;8.00;;;;;;;27.21;47.29;98588.14;124843;1093;64265;-81
2021/07/04 08:56:06;;;;;;;9.00;8.30;;;;;;;27.08;46.78;98589.86;124877;1093;64267;-81
2021/07/04 08:58:33;;;;;;;9.10;8.20;;;;;;;27.22;47.21;98595.28;124874;1093;64216;-81
2021/07/04 09:01:25;;;;;;;8.80;7.83;;;;;;;27.27;46.13;98589.98;124872;1093;64271;-81
2021/07/04 09:03:56;;;;;;;9.43;8.63;;;;;;;27.00;45.99;98590.11;124989;1093;64287;-81
2021/07/04 09:06:40;;;;;;;9.50;8.43;;;;;;;27.11;46.40;98585.84;124992;1093;64280;-82
2021/07/04 09:09:24;;;;;;;8.70;7.83;;;;;;;27.28;45.93;98587.05;125117;1092;64453;-80
2021/07/04 09:12:11;;;;;;;7.60;7.03;;;;;;;27.32;45.23;98581.95;125247;1093;64287;-80
2021/07/04 09:14:48;;;;;;;6.97;6.37;;;;;;;27.24;44.46;98574.84;125272;1092;64284;-81
2021/07/04 09:17:17;;;;;;;7.40;6.70;;;;;;;27.01;44.15;98575.38;124963;1093;64644;-81
2021/07/04 09:19:59;;;;;;;11.23;6.37;;;;;;;27.05;45.00;98568.42;124899;1093;64357;-80
2021/07/04 09:22:31;;;;;;;7.03;6.47;;;;;;;26.99;45.28;98566.56;124853;1094;64593;-82
2021/07/04 09:25:17;;;;;;;7.97;7.17;;;;;;;26.90;45.52;98560.49;124868;1093;64360;-83
2021/07/04 09:28:03;;;;;;;7.70;6.90;;;;;;;26.68;46.01;98565.45;124872;1093;64284;-81
2021/07/04 09:30:56;;;;;;;6.67;6.07;;;;;;;26.36;45.08;98560.94;124826;1093;64244;-82
2021/07/04 09:33:32;;;;;;;7.10;6.40;;;;;;;25.95;45.41;98562.89;124801;1093;65524;-80
2021/07/04 09:36:07;;;;;;;7.03;6.30;;;;;;;25.77;45.22;98559.95;124871;1093;64359;-80
2021/07/04 09:38:39;;;;;;;7.40;6.80;;;;;;;25.89;45.89;98563.75;124901;1093;64723;-80
2021/07/04 09:41:11;;;;;;;6.83;6.13;;;;;;;26.26;45.66;98559.47;124837;1093;64213;-81
2021/07/04 09:43:39;;;;;;;6.03;5.50;;;;;;;26.54;45.19;98563.84;124820;1093;64671;-82
2021/07/04 09:46:14;;;;;;;6.17;5.63;;;;;;;26.66;45.00;98559.36;124887;1093;64268;-81
2021/07/04 09:48:50;;;;;;;5.60;5.10;;;;;;;26.76;44.82;98558.06;124829;1093;64606;-81
2021/07/04 09:51:16;;;;;;;6.13;5.30;;;;;;;27.04;45.04;98550.34;124845;1093;64418;-80
2021/07/04 09:53:52;;;;;;;6.05;5.20;;;;;;;27.16;44.42;98553.20;124909;1093;64307;-79
2021/07/04 09:56:26;;;;;;;5.53;5.03;;;;;;;26.89;43.42;98550.63;124918;1093;64178;-80
2021/07/04 09:58:55;;;;;;;5.13;4.73;;;;;;;26.33;41.40;98547.67;124788;1093;64331;-79
2021/07/04 10:01:31;;;;;;;6.63;4.57;;;;;;;25.84;42.37;98547.17;124818;1094;64265;-79
2021/07/04 10:03:59;;;;;;;5.27;4.77;;;;;;;25.94;42.50;98544.84;124807;1093;64271;-79
2021/07/04 10:06:25;;;;;;;4.70;4.30;;;;;;;26.23;43.07;98534.48;124900;1093;64319;-79
2021/07/04 10:08:53;;;;;;;5.37;4.87;;;;;;;26.59;43.74;98525.73;124832;1093;64225;-79
2021/07/04 10:11:20;;;;;;;5.03;4.63;;;;;;;26.94;43.51;98528.09;124776;1093;64279;-80
2021/07/04 10:13:49;;;;;;;5.30;4.80;;;;;;;27.17;43.24;98516.59;124774;1093;64271;-80
2021/07/04 10:16:18;;;;;;;5.25;4.75;;;;;;;27.13;41.34;98524.39;124849;1093;64366;-80
2021/07/04 10:18:48;;;;;;;5.05;4.63;;;;;;;26.79;41.35;98519.35;124822;1093;64284;-80
2021/07/04 10:21:17;;;;;;;5.43;4.93;;;;;;;26.53;42.15;98518.42;124795;1092;64305;-80
2021/07/04 10:23:50;;;;;;;5.00;4.60;;;;;;;26.56;41.96;98520.71;124753;1093;64188;-80
2021/07/04 10:26:18;;;;;;;6.37;5.17;;;;;;;26.59;40.97;98513.97;124845;1093;64271;-80
2021/07/04 10:28:46;;;;;;;5.87;4.77;;;;;;;26.69;41.54;98500.67;124812;1093;64176;-80
2021/07/04 10:31:16;;;;;;;5.10;4.70;;;;;;;26.95;41.50;98505.16;124825;1092;64276;-80
2021/07/04 10:33:43;;;;;;;6.60;4.53;;;;;;;27.12;41.26;98495.37;124812;1093;64180;-80
2021/07/04 10:36:18;;;;;;;5.07;4.67;;;;;;;27.36;41.97;98492.90;124795;1093;64284;-80
2021/07/04 10:38:55;;;;;;;5.80;4.90;;;;;;;27.55;41.27;98488.31;124812;1093;64217;-80
2021/07/04 10:41:26;;;;;;;5.30;4.80;;;;;;;27.67;41.47;98481.01;124879;1093;64268;-80
2021/07/04 10:44:00;;;;;;;6.80;4.37;;;;;;;27.83;40.91;98485.09;124849;1093;64188;-80
2021/07/04 10:46:46;;;;;;;4.70;4.40;;;;;;;27.75;39.88;98480.74;124811;1093;64268;-79
2021/07/04 10:49:24;;;;;;;4.60;4.30;;;;;;;27.71;40.52;98473.20;124854;1093;64216;-79
2021/07/04 10:51:55;;;;;;;4.40;3.93;;;;;;;27.74;40.29;98483.70;124842;1093;64450;-80
2021/07/04 10:54:44;;;;;;;5.05;4.30;;;;;;;27.72;39.73;98467.48;124859;1093;64268;-79
2021/07/04 10:57:28;;;;;;;4.70;4.40;;;;;;;27.69;39.54;98475.32;124964;1093;64271;-79
2021/07/04 11:02:46;;;;;;;10.33;4.83;;;;;;;27.76;40.28;98468.72;124884;1093;64284;-79
2021/07/04 11:05:15;;;;;;;5.53;5.03;;;;;;;27.76;40.02;98465.98;124936;1093;64439;-79
2021/07/04 11:07:54;;;;;;;4.65;4.25;;;;;;;27.66;39.18;98467.56;125012;1093;64396;-79
2021/07/04 11:10:29;;;;;;;5.43;4.25;;;;;;;27.33;38.38;98460.48;124819;1094;64293;-79
2021/07/04 11:12:57;;;;;;;4.53;4.13;;;;;;;27.06;37.67;98462.58;124799;1092;64274;-79
2021/07/04 11:15:25;;;;;;;4.60;4.30;;;;;;;26.90;38.31;98461.22;124862;1093;64315;-80
2021/07/04 11:17:58;;;;;;;5.10;4.60;;;;;;;26.88;38.35;98464.20;124892;1093;64430;-80
2021/07/04 11:20:28;;;;;;;4.77;4.37;;;;;;;26.90;38.62;98453.02;124852;1093;64355;-80
2021/07/04 11:22:58;;;;;;;4.40;4.10;;;;;;;26.81;37.79;98460.66;124886;1093;64286;-80
2021/07/04 11:25:38;;;;;;;5.00;4.60;;;;;;;26.61;37.84;98454.47;124889;1093;64210;-79